Time;durP1;ratioP1;P1;durP2;ratioP2;P2;SDS_P1;SDS_P2;PMS_P1;PMS_P2;Temp;Humidity;BMP_temperature;BMP_pressure;BME280_temperature;BME280_humidity;BME280_pressure;Samples;Min_cycle;Max_cycle;Signal;HPM_P1;HPM_P2
2022/01/24 00:00:12;;;;;;;;;;;4.70;87.70;;;;;;5073240;28;19908;-76
2022/01/24 00:02:38;;;;;;;;;;;4.60;89.00;;;;;;5072160;28;19920;-76
2022/01/24 00:05:04;;;;;;;;;;;4.60;89.70;;;;;;5073258;28;20337;-76
2022/01/24 00:07:31;;;;;;;;;;;4.60;90.40;;;;;;5072743;28;19908;-76
2022/01/24 00:10:00;;;;;;;;;;;4.60;90.40;;;;;;5055440;28;20403;-76
2022/01/24 00:12:46;;;;;;;;;;;;;;;;;;5054875;28;19912;-75
2022/01/24 00:18:01;;;;;;;;;;;4.50;89.40;;;;;;5068520;28;20349;-76
2022/01/24 00:28:25;;;;;;;;;;;4.40;90.00;;;;;;5054122;28;19935;-76
2022/01/24 00:30:51;;;;;;;;;;;4.40;90.10;;;;;;5072407;28;20335;-75
2022/01/24 00:33:19;;;;;;;;;;;;;;;;;;5072938;28;19952;-76
2022/01/24 00:35:45;;;;;;;;;;;4.30;90.20;;;;;;5053944;28;19955;-75
2022/01/24 00:38:10;;;;;;;;;;;4.30;90.30;;;;;;5072652;28;19946;-76
2022/01/24 00:40:41;;;;;;;;;;;4.30;90.60;;;;;;5072001;28;19931;-76
2022/01/24 00:45:57;;;;;;;;;;;4.20;91.00;;;;;;5071649;28;19909;-76
2022/01/24 00:56:06;;;;;;;;;;;4.00;91.70;;;;;;5072331;28;19961;-75
2022/01/24 00:58:32;;;;;;;;;;;;;;;;;;5053898;28;19908;-74
2022/01/24 01:00:57;;;;;;;;;;;3.90;91.70;;;;;;5072202;28;19909;-75
2022/01/24 01:03:24;;;;;;;;;;;3.80;92.10;;;;;;5072453;28;19927;-75
2022/01/24 01:19:21;;;;;;;;;;;;;;;;;;5071155;28;20315;-75
2022/01/24 01:21:46;;;;;;;;;;;3.60;93.40;;;;;;5052872;28;19908;-75
2022/01/24 01:24:13;;;;;;;;;;;3.50;93.50;;;;;;5072077;28;19999;-75
2022/01/24 01:26:44;;;;;;;;;;;3.60;93.50;;;;;;5070488;28;20343;-75
2022/01/24 01:29:21;;;;;;;;;;;3.60;93.50;;;;;;5072224;28;19909;-75
2022/01/24 01:53:24;;;;;;;;;;;3.00;96.70;;;;;;5075973;28;19916;-75
2022/01/24 01:55:48;;;;;;;;;;;2.90;96.70;;;;;;5074485;28;19908;-75
2022/01/24 01:58:15;;;;;;;;;;;3.10;97.00;;;;;;5075398;28;19916;-76
2022/01/24 02:00:41;;;;;;;;;;;;;;;;;;5075160;28;20337;-75
2022/01/24 02:03:07;;;;;;;;;;;3.20;96.40;;;;;;5075001;28;19927;-75
2022/01/24 02:05:33;;;;;;;;;;;;;;;;;;5075271;28;20013;-74
2022/01/24 02:07:58;;;;;;;;;;;3.20;96.00;;;;;;5075317;28;20234;-75
2022/01/24 02:10:24;;;;;;;;;;;3.30;96.00;;;;;;5075805;28;19999;-75
2022/01/24 02:12:51;;;;;;;;;;;3.40;95.70;;;;;;5056733;28;20000;-75
2022/01/24 02:15:38;;;;;;;;;;;;;;;;;;5075096;28;19915;-76
2022/01/24 02:18:13;;;;;;;;;;;3.30;94.80;;;;;;5075403;28;19909;-75
2022/01/24 02:25:52;;;;;;;;;;;3.00;95.20;;;;;;5074455;28;19909;-75
2022/01/24 02:28:20;;;;;;;;;;;3.10;95.50;;;;;;5057158;28;19922;-75
2022/01/24 02:30:58;;;;;;;;;;;3.00;95.40;;;;;;5074032;28;20292;-75
2022/01/24 02:33:24;;;;;;;;;;;2.90;95.20;;;;;;5057189;28;20279;-76
2022/01/24 02:35:50;;;;;;;;;;;2.80;95.50;;;;;;5055959;28;19912;-76
2022/01/24 02:38:37;;;;;;;;;;;2.80;95.90;;;;;;5057003;28;20335;-76
2022/01/24 02:49:20;;;;;;;;;;;2.90;96.10;;;;;;5057562;28;19916;-76
2022/01/24 02:51:46;;;;;;;;;;;2.80;96.10;;;;;;5053607;28;19909;-75
2022/01/24 02:54:22;;;;;;;;;;;2.90;96.30;;;;;;5054686;28;19913;-76
2022/01/24 02:56:48;;;;;;;;;;;2.70;96.10;;;;;;5053642;28;19909;-75
2022/01/24 02:59:13;;;;;;;;;;;2.70;96.40;;;;;;5054358;28;19978;-76
2022/01/24 03:01:39;;;;;;;;;;;;;;;;;;5035837;28;20415;-74
2022/01/24 03:04:05;;;;;;;;;;;2.70;96.60;;;;;;5054532;28;19963;-76
2022/01/24 03:06:30;;;;;;;;;;;2.80;96.50;;;;;;5054761;28;20300;-76
2022/01/24 03:08:55;;;;;;;;;;;2.60;96.50;;;;;;5053480;28;19916;-76
2022/01/24 03:11:21;;;;;;;;;;;2.60;96.70;;;;;;5054343;28;19909;-76
2022/01/24 03:13:47;;;;;;;;;;;2.60;96.90;;;;;;5053302;28;20246;-75
2022/01/24 03:16:12;;;;;;;;;;;2.60;96.90;;;;;;5036361;28;19909;-75
2022/01/24 03:18:38;;;;;;;;;;;;;;;;;;5063621;28;20003;-74
2022/01/24 03:21:03;;;;;;;;;;;2.40;97.50;;;;;;5074074;28;20364;-75
2022/01/24 03:23:29;;;;;;;;;;;2.30;97.90;;;;;;5073732;28;20340;-77
2022/01/24 03:25:55;;;;;;;;;;;2.30;99.00;;;;;;5073304;28;19909;-76
2022/01/24 03:28:20;;;;;;;;;;;2.40;99.30;;;;;;5074030;28;19916;-76
2022/01/24 03:30:46;;;;;;;;;;;2.20;99.60;;;;;;5073174;28;20055;-75
2022/01/24 03:33:11;;;;;;;;;;;2.30;99.90;;;;;;5055850;28;19913;-76
2022/01/24 03:35:40;;;;;;;;;;;;;;;;;;5073695;28;20344;-75
2022/01/24 03:38:05;;;;;;;;;;;2.50;99.90;;;;;;5055700;28;19997;-76
2022/01/24 03:40:31;;;;;;;;;;;2.10;99.90;;;;;;5073743;28;19908;-76
2022/01/24 03:42:57;;;;;;;;;;;2.10;99.90;;;;;;5072988;28;19916;-76
2022/01/24 03:48:37;;;;;;;;;;;2.00;99.90;;;;;;5073431;28;19939;-76
2022/01/24 03:50:55;;;;;;;;;;;1.90;99.90;;;;;;5071305;28;20335;-76
2022/01/24 03:53:21;;;;;;;;;;;1.80;99.90;;;;;;5073435;28;19908;-76
2022/01/24 03:55:47;;;;;;;;;;;1.90;99.90;;;;;;5072355;28;19939;-76
2022/01/24 03:58:13;;;;;;;;;;;;;;;;;;5055772;28;19958;-76
2022/01/24 04:00:39;;;;;;;;;;;;;;;;;;5055370;28;19908;-75
2022/01/24 04:03:04;;;;;;;;;;;2.10;99.90;;;;;;5072220;28;20406;-77
2022/01/24 04:05:30;;;;;;;;;;;2.10;99.90;;;;;;5073292;28;19934;-77
2022/01/24 04:07:55;;;;;;;;;;;2.00;99.90;;;;;;5054489;28;19991;-76
2022/01/24 04:10:22;;;;;;;;;;;2.00;99.90;;;;;;5072925;28;19912;-77
2022/01/24 04:12:49;;;;;;;;;;;2.00;99.90;;;;;;5071837;28;20288;-76
2022/01/24 04:15:41;;;;;;;;;;;2.10;99.90;;;;;;5073107;28;19909;-76
2022/01/24 04:18:28;;;;;;;;;;;2.00;99.90;;;;;;5072543;28;19998;-78
2022/01/24 04:23:41;;;;;;;;;;;2.20;99.90;;;;;;5072797;28;20011;-77
2022/01/24 04:26:07;;;;;;;;;;;2.00;99.90;;;;;;5072548;28;19999;-77
2022/01/24 04:28:32;;;;;;;;;;;1.80;99.70;;;;;;5055057;28;20012;-77
2022/01/24 04:30:58;;;;;;;;;;;1.80;99.90;;;;;;5053867;28;19908;-77
2022/01/24 04:33:23;;;;;;;;;;;1.80;99.90;;;;;;5072523;28;19913;-77
2022/01/24 04:35:49;;;;;;;;;;;1.80;99.90;;;;;;5071731;28;19912;-76
2022/01/24 04:38:14;;;;;;;;;;;1.60;99.90;;;;;;5054806;28;19940;-77
2022/01/24 04:40:40;;;;;;;;;;;1.50;99.90;;;;;;5072523;28;19908;-77
2022/01/24 04:46:04;;;;;;;;;;;1.60;99.90;;;;;;5071984;28;20343;-76
2022/01/24 04:51:33;;;;;;;;;;;1.60;99.90;;;;;;5052784;28;20272;-76
2022/01/24 04:56:34;;;;;;;;;;;1.70;99.90;;;;;;5052560;28;20245;-77
2022/01/24 04:59:00;;;;;;;;;;;;;;;;;;5051450;28;19909;-76
2022/01/24 05:01:25;;;;;;;;;;;1.50;99.90;;;;;;5034793;28;19913;-77
2022/01/24 05:03:51;;;;;;;;;;;1.60;99.90;;;;;;5051246;28;20437;-76
2022/01/24 05:06:17;;;;;;;;;;;1.70;99.90;;;;;;5034485;28;19913;-76
2022/01/24 05:08:43;;;;;;;;;;;;;;;;;;5052725;28;19909;-77
2022/01/24 05:11:12;;;;;;;;;;;1.50;99.90;;;;;;5033896;28;19908;-76
2022/01/24 05:24:29;;;;;;;;;;;1.20;99.90;;;;;;5073553;28;20019;-77
2022/01/24 05:26:54;;;;;;;;;;;1.20;99.90;;;;;;5075317;28;20008;-76
2022/01/24 05:29:20;;;;;;;;;;;;;;;;;;5076395;28;20329;-77
2022/01/24 05:31:46;;;;;;;;;;;;;;;;;;5075865;28;19920;-76
2022/01/24 05:34:12;;;;;;;;;;;1.30;99.90;;;;;;5076014;28;20296;-77
2022/01/24 05:36:38;;;;;;;;;;;;;;;;;;5058231;28;19955;-78
2022/01/24 05:39:03;;;;;;;;;;;1.00;99.90;;;;;;5075319;28;19920;-77
2022/01/24 05:41:29;;;;;;;;;;;;;;;;;;5075988;28;19909;-78
2022/01/24 05:43:55;;;;;;;;;;;1.00;99.90;;;;;;5075295;28;20384;-77
2022/01/24 05:46:20;;;;;;;;;;;0.90;99.90;;;;;;5075993;28;19908;-77
2022/01/24 05:48:46;;;;;;;;;;;;;;;;;;5075969;28;19912;-76
2022/01/24 05:51:12;;;;;;;;;;;0.80;99.90;;;;;;5075477;28;19915;-78
2022/01/24 05:53:37;;;;;;;;;;;0.80;99.90;;;;;;5075919;28;19909;-77
2022/01/24 05:56:03;;;;;;;;;;;0.90;99.90;;;;;;5056727;28;19909;-77
2022/01/24 05:58:28;;;;;;;;;;;0.90;99.90;;;;;;5074938;28;19962;-77
2022/01/24 06:00:54;;;;;;;;;;;1.00;99.90;;;;;;5074689;28;19962;-77
2022/01/24 06:03:20;;;;;;;;;;;1.00;99.90;;;;;;5075545;28;19974;-77
2022/01/24 06:05:46;;;;;;;;;;;;;;;;;;5075847;28;19916;-77
2022/01/24 06:08:12;;;;;;;;;;;0.70;99.90;;;;;;5057186;28;20007;-77
2022/01/24 06:10:38;;;;;;;;;;;0.80;99.90;;;;;;5075597;28;19915;-77
2022/01/24 06:13:04;;;;;;;;;;;0.80;99.90;;;;;;5074951;28;19959;-77
2022/01/24 06:15:29;;;;;;;;;;;;;;;;;;5057529;28;19951;-77
2022/01/24 06:17:55;;;;;;;;;;;0.80;99.90;;;;;;5074412;28;19951;-77
2022/01/24 06:20:20;;;;;;;;;;;0.80;99.90;;;;;;5058017;28;19986;-77
2022/01/24 06:22:46;;;;;;;;;;;0.80;99.90;;;;;;5055194;28;20430;-77
2022/01/24 06:25:13;;;;;;;;;;;0.80;99.90;;;;;;5054697;28;19995;-77
2022/01/24 06:27:39;;;;;;;;;;;0.80;99.90;;;;;;5054926;28;19916;-77
2022/01/24 06:30:05;;;;;;;;;;;;;;;;;;5036568;28;20273;-77
2022/01/24 06:32:31;;;;;;;;;;;;;;;;;;5054792;28;19912;-77
2022/01/24 06:34:56;;;;;;;;;;;0.80;99.90;;;;;;5053853;28;19917;-77
2022/01/24 06:37:22;;;;;;;;;;;0.70;99.90;;;;;;5054866;28;20376;-78
2022/01/24 06:39:47;;;;;;;;;;;0.70;99.90;;;;;;5055016;28;19954;-77
2022/01/24 06:42:21;;;;;;;;;;;0.60;99.90;;;;;;5036266;28;20367;-77
2022/01/24 06:44:46;;;;;;;;;;;0.80;99.90;;;;;;5054969;28;19960;-79
2022/01/24 06:47:12;;;;;;;;;;;0.80;99.90;;;;;;5054045;28;19913;-72
2022/01/24 06:49:38;;;;;;;;;;;0.80;99.90;;;;;;5065392;28;19909;-76
2022/01/24 06:52:03;;;;;;;;;;;0.80;99.90;;;;;;5056068;28;19912;-75
2022/01/24 06:54:29;;;;;;;;;;;0.80;99.90;;;;;;5074985;28;19996;-76
2022/01/24 06:56:54;;;;;;;;;;;0.60;99.90;;;;;;5073929;28;20476;-76
2022/01/24 06:59:20;;;;;;;;;;;0.50;99.90;;;;;;5074404;28;19947;-79
2022/01/24 07:01:45;;;;;;;;;;;0.40;99.90;;;;;;5074497;28;19962;-81
2022/01/24 07:04:11;;;;;;;;;;;;;;;;;;5073142;28;19921;-76
2022/01/24 07:06:37;;;;;;;;;;;;;;;;;;5056434;28;20261;-76
2022/01/24 07:09:03;;;;;;;;;;;0.50;99.90;;;;;;5073469;28;19912;-77
2022/01/24 07:11:29;;;;;;;;;;;0.50;99.90;;;;;;5074146;28;20012;-72
2022/01/24 07:13:55;;;;;;;;;;;;;;;;;;5073634;28;20347;-80
2022/01/24 07:16:20;;;;;;;;;;;0.50;99.90;;;;;;5074375;28;19915;-72
2022/01/24 07:18:58;;;;;;;;;;;;;;;;;;5070787;28;19967;-75
2022/01/24 07:21:24;;;;;;;;;;;;;;;;;;5052944;28;20385;-73
2022/01/24 07:23:50;;;;;;;;;;;;;;;;;;5073555;28;19956;-72
2022/01/24 07:26:16;;;;;;;;;;;;;;;;;;5055643;28;19920;-72
2022/01/24 07:28:44;;;;;;;;;;;0.40;99.90;;;;;;5073598;28;19909;-72
2022/01/24 07:31:10;;;;;;;;;;;0.60;99.90;;;;;;5072084;28;20341;-73
2022/01/24 07:33:35;;;;;;;;;;;0.60;99.90;;;;;;5073306;28;19920;-72
2022/01/24 07:36:01;;;;;;;;;;;;;;;;;;5073206;28;19920;-73
2022/01/24 07:38:27;;;;;;;;;;;0.60;99.90;;;;;;5073919;28;19967;-72
2022/01/24 07:40:55;;;;;;;;;;;;;;;;;;5055452;28;19999;-81
2022/01/24 07:43:21;;;;;;;;;;;;;;;;;;5073660;28;19917;-73
2022/01/24 07:45:47;;;;;;;;;;;0.70;99.90;;;;;;5043849;28;19919;-72
2022/01/24 07:48:13;;;;;;;;;;;0.70;99.90;;;;;;5052329;28;19908;-72
2022/01/24 07:50:40;;;;;;;;;;;0.60;99.90;;;;;;5053873;28;19909;-72
2022/01/24 07:53:06;;;;;;;;;;;0.70;99.90;;;;;;5053411;28;19915;-72
2022/01/24 07:55:33;;;;;;;;;;;0.70;99.90;;;;;;5053636;28;20432;-71
2022/01/24 07:57:59;;;;;;;;;;;0.80;99.90;;;;;;5053140;28;20361;-71
2022/01/24 08:00:25;;;;;;;;;;;;;;;;;;5053754;28;19909;-72
2022/01/24 08:02:50;;;;;;;;;;;0.90;99.90;;;;;;5053520;28;20345;-72
2022/01/24 08:05:16;;;;;;;;;;;0.90;99.90;;;;;;5052932;28;20387;-72
2022/01/24 08:07:41;;;;;;;;;;;0.90;99.90;;;;;;5068307;28;19912;-72
2022/01/24 08:10:07;;;;;;;;;;;0.90;99.90;;;;;;5072737;28;20361;-72
2022/01/24 08:12:34;;;;;;;;;;;0.90;99.90;;;;;;5073554;28;19908;-72
2022/01/24 08:15:00;;;;;;;;;;;1.00;99.90;;;;;;5072881;28;19908;-72
2022/01/24 08:17:26;;;;;;;;;;;1.10;99.90;;;;;;5073520;28;19952;-72
2022/01/24 08:19:52;;;;;;;;;;;1.20;99.90;;;;;;5073348;28;19909;-71
2022/01/24 08:22:18;;;;;;;;;;;;;;;;;;5071503;28;19908;-73
2022/01/24 08:24:47;;;;;;;;;;;1.40;99.90;;;;;;5054797;28;19908;-72
2022/01/24 08:27:15;;;;;;;;;;;1.50;99.90;;;;;;5072519;28;20035;-72
2022/01/24 08:29:43;;;;;;;;;;;;;;;;;;5073301;28;19912;-72
2022/01/24 08:32:09;;;;;;;;;;;1.20;99.90;;;;;;5054452;28;19959;-72
2022/01/24 08:34:34;;;;;;;;;;;1.20;99.90;;;;;;5073118;28;19974;-73
2022/01/24 08:37:00;;;;;;;;;;;;;;;;;;5072636;28;19909;-72
2022/01/24 08:39:26;;;;;;;;;;;1.40;99.90;;;;;;5073028;28;19923;-72
2022/01/24 08:44:33;;;;;;;;;;;1.10;99.90;;;;;;5072379;28;19917;-72
2022/01/24 08:46:59;;;;;;;;;;;1.20;99.90;;;;;;5072607;28;20353;-72
2022/01/24 08:49:24;;;;;;;;;;;1.30;99.90;;;;;;5069596;28;19962;-72
2022/01/24 08:51:50;;;;;;;;;;;1.40;99.90;;;;;;5074108;28;20361;-71
2022/01/24 08:54:15;;;;;;;;;;;1.60;99.90;;;;;;5073982;28;19957;-75
2022/01/24 08:56:41;;;;;;;;;;;;;;;;;;5074121;28;19958;-75
2022/01/24 08:59:07;;;;;;;;;;;1.70;99.90;;;;;;5054619;28;19995;-75
2022/01/24 09:01:33;;;;;;;;;;;1.70;99.90;;;;;;5073027;28;19908;-75
2022/01/24 09:03:58;;;;;;;;;;;1.70;99.90;;;;;;5072155;28;19920;-75
2022/01/24 09:06:24;;;;;;;;;;;1.70;99.90;;;;;;5072871;28;20011;-75
2022/01/24 09:09:03;;;;;;;;;;;1.80;99.90;;;;;;5072786;28;19993;-75
2022/01/24 09:11:29;;;;;;;;;;;;;;;;;;5072726;28;19915;-76
2022/01/24 09:13:55;;;;;;;;;;;2.10;99.90;;;;;;5054782;28;19909;-75
2022/01/24 09:16:21;;;;;;;;;;;2.10;99.90;;;;;;5071893;28;19908;-75
2022/01/24 09:18:46;;;;;;;;;;;2.20;99.90;;;;;;5054694;28;20014;-75
2022/01/24 09:21:12;;;;;;;;;;;;;;;;;;5071584;28;20268;-75
2022/01/24 09:23:38;;;;;;;;;;;2.50;99.90;;;;;;5071907;28;19916;-74
2022/01/24 09:26:04;;;;;;;;;;;2.70;99.90;;;;;;5071790;28;19991;-75
2022/01/24 09:28:29;;;;;;;;;;;;;;;;;;5080649;28;19920;-74
2022/01/24 09:30:57;;;;;;;;;;;;;;;;;;5072568;28;19916;-75
2022/01/24 09:33:23;;;;;;;;;;;2.70;99.90;;;;;;5072103;28;19912;-75
2022/01/24 09:35:49;;;;;;;;;;;2.70;99.90;;;;;;5072655;28;19912;-74
2022/01/24 09:38:16;;;;;;;;;;;2.70;99.90;;;;;;5071671;28;19909;-75
2022/01/24 09:40:42;;;;;;;;;;;2.70;99.90;;;;;;5062281;28;19934;-75
2022/01/24 09:43:07;;;;;;;;;;;2.90;99.90;;;;;;5074111;28;20360;-74
2022/01/24 09:45:33;;;;;;;;;;;;;;;;;;5086599;28;19961;-75
2022/01/24 09:47:59;;;;;;;;;;;;;;;;;;5082444;28;19909;-84
2022/01/24 09:50:25;;;;;;;;;;;3.00;99.90;;;;;;5082225;28;20003;-75
2022/01/24 09:52:51;;;;;;;;;;;;;;;;;;5080959;28;20293;-77
2022/01/24 09:55:17;;;;;;;;;;;3.20;99.90;;;;;;5082319;28;19958;-75
2022/01/24 09:57:47;;;;;;;;;;;3.20;99.90;;;;;;5082038;28;20348;-75
2022/01/24 10:00:13;;;;;;;;;;;3.40;99.90;;;;;;5062228;28;20330;-75
2022/01/24 10:02:39;;;;;;;;;;;;;;;;;;5082187;28;19968;-75
2022/01/24 10:05:17;;;;;;;;;;;3.60;99.90;;;;;;5079739;28;20383;-75
2022/01/24 10:07:48;;;;;;;;;;;3.60;99.90;;;;;;5054394;28;20345;-75
2022/01/24 10:10:16;;;;;;;;;;;3.60;99.90;;;;;;5072488;28;19995;-75
2022/01/24 10:17:52;;;;;;;;;;;3.90;99.90;;;;;;5075808;28;19962;-75
2022/01/24 10:20:26;;;;;;;;;;;3.90;99.90;;;;;;5074919;28;20392;-76
2022/01/24 10:23:10;;;;;;;;;;;3.80;99.90;;;;;;5058225;28;20343;-76
2022/01/24 10:25:36;;;;;;;;;;;;;;;;;;5075599;28;19919;-76
2022/01/24 10:28:02;;;;;;;;;;;;;;;;;;5074910;28;19998;-78
2022/01/24 10:30:28;;;;;;;;;;;4.00;99.90;;;;;;5075441;28;19909;-76
2022/01/24 10:32:55;;;;;;;;;;;4.20;99.80;;;;;;5075599;28;20264;-76
2022/01/24 10:35:38;;;;;;;;;;;4.20;99.40;;;;;;5074914;28;19916;-76
2022/01/24 10:38:20;;;;;;;;;;;4.20;98.40;;;;;;5074432;28;19972;-76
2022/01/24 10:40:52;;;;;;;;;;;4.20;98.10;;;;;;5076816;28;19915;-76
2022/01/24 10:43:22;;;;;;;;;;;4.20;97.30;;;;;;5059555;28;19956;-76
2022/01/24 10:45:48;;;;;;;;;;;4.20;97.10;;;;;;5075332;28;20330;-76
2022/01/24 10:48:19;;;;;;;;;;;4.40;97.70;;;;;;5070416;28;19954;-76
2022/01/24 10:50:44;;;;;;;;;;;4.30;96.70;;;;;;5066131;28;19909;-76
2022/01/24 10:53:12;;;;;;;;;;;4.20;96.50;;;;;;5054428;28;20308;-76
2022/01/24 10:55:39;;;;;;;;;;;4.30;97.30;;;;;;5055012;28;20007;-75
2022/01/24 10:58:17;;;;;;;;;;;4.40;97.00;;;;;;5054821;28;20349;-76
2022/01/24 11:00:44;;;;;;;;;;;4.60;97.00;;;;;;5037191;28;19920;-75
2022/01/24 11:03:17;;;;;;;;;;;4.60;95.30;;;;;;5055431;28;19921;-76
2022/01/24 11:05:43;;;;;;;;;;;4.60;95.50;;;;;;5075258;28;20062;-76
2022/01/24 11:08:10;;;;;;;;;;;4.60;95.60;;;;;;5073058;28;19991;-76
2022/01/24 11:10:38;;;;;;;;;;;4.70;95.70;;;;;;5074935;28;20030;-75
2022/01/24 11:13:05;;;;;;;;;;;;;;;;;;5074792;28;19916;-75
2022/01/24 11:15:32;;;;;;;;;;;4.80;95.10;;;;;;5074687;28;19916;-76
2022/01/24 11:17:58;;;;;;;;;;;4.80;94.40;;;;;;5074368;28;19915;-75
2022/01/24 11:20:29;;;;;;;;;;;4.90;94.20;;;;;;5072467;28;19916;-75
2022/01/24 11:23:00;;;;;;;;;;;4.80;93.90;;;;;;5074427;28;20369;-75
2022/01/24 11:25:28;;;;;;;;;;;4.80;93.60;;;;;;5073939;28;19974;-75
2022/01/24 11:27:53;;;;;;;;;;;;;;;;;;5074471;28;20398;-75
2022/01/24 11:30:21;;;;;;;;;;;4.50;94.10;;;;;;5073819;28;19922;-75
2022/01/24 11:32:53;;;;;;;;;;;4.60;95.10;;;;;;5074434;28;19923;-74
2022/01/24 11:35:32;;;;;;;;;;;4.80;94.70;;;;;;5073482;28;19920;-73
2022/01/24 11:37:58;;;;;;;;;;;4.90;93.70;;;;;;5092145;28;19912;-74
2022/01/24 11:40:25;;;;;;;;;;;5.10;93.70;;;;;;5091143;28;19912;-76
2022/01/24 11:42:52;;;;;;;;;;;;;;;;;;5092977;28;19973;-76
2022/01/24 11:45:32;;;;;;;;;;;5.20;93.30;;;;;;5092484;28;19908;-80
2022/01/24 11:48:11;;;;;;;;;;;5.20;92.50;;;;;;5091557;28;20012;-78
2022/01/24 11:50:37;;;;;;;;;;;5.30;93.20;;;;;;5091770;28;19914;-76
2022/01/24 11:53:03;;;;;;;;;;;;;;;;;;5091444;28;19916;-74
2022/01/24 11:55:31;;;;;;;;;;;5.30;91.30;;;;;;5093041;28;20041;-74
2022/01/24 11:57:58;;;;;;;;;;;5.40;92.00;;;;;;5094222;28;20008;-74
2022/01/24 12:00:29;;;;;;;;;;;5.50;90.80;;;;;;5093496;28;19908;-74
2022/01/24 12:02:56;;;;;;;;;;;5.40;90.30;;;;;;5084258;28;19920;-73
2022/01/24 12:05:22;;;;;;;;;;;;;;;;;;5055210;28;20284;-73
2022/01/24 12:07:47;;;;;;;;;;;5.70;92.90;;;;;;5055444;28;19912;-73
2022/01/24 12:10:37;;;;;;;;;;;5.80;91.40;;;;;;5072684;28;20007;-73
2022/01/24 12:13:22;;;;;;;;;;;5.90;91.50;;;;;;5060167;28;19913;-72
2022/01/24 12:15:48;;;;;;;;;;;6.00;91.20;;;;;;5071696;28;19916;-73
2022/01/24 12:18:26;;;;;;;;;;;5.90;90.20;;;;;;5072183;28;20284;-73
2022/01/24 12:20:54;;;;;;;;;;;5.80;90.70;;;;;;5073396;28;19955;-73
2022/01/24 12:23:20;;;;;;;;;;;6.10;91.10;;;;;;5072577;28;19963;-74
2022/01/24 12:25:47;;;;;;;;;;;6.00;90.30;;;;;;5073370;28;19948;-74
2022/01/24 12:28:15;;;;;;;;;;;6.00;90.50;;;;;;5072662;28;19912;-74
2022/01/24 12:30:56;;;;;;;;;;;5.80;90.40;;;;;;5072329;28;20365;-74
2022/01/24 12:33:51;;;;;;;;;;;5.90;91.00;;;;;;5071098;28;19970;-74
2022/01/24 12:36:37;;;;;;;;;;;6.00;90.60;;;;;;5050706;28;19940;-74
2022/01/24 12:39:16;;;;;;;;;;;6.10;90.20;;;;;;5073072;28;19913;-74
2022/01/24 12:41:47;;;;;;;;;;;5.90;88.90;;;;;;5073471;28;19913;-74
2022/01/24 12:47:01;;;;;;;;;;;6.00;83.80;;;;;;5073188;28;20017;-74
2022/01/24 12:49:28;;;;;;;;;;;6.00;83.30;;;;;;5050791;28;20380;-74
2022/01/24 12:51:53;;;;;;;;;;;6.00;85.20;;;;;;5052889;28;19962;-74
2022/01/24 12:54:19;;;;;;;;;;;5.90;85.10;;;;;;5052412;28;19909;-74
2022/01/24 12:56:44;;;;;;;;;;;5.70;85.20;;;;;;5052942;28;19916;-74
2022/01/24 12:59:10;;;;;;;;;;;;;;;;;;5052484;28;19915;-84
2022/01/24 13:01:41;;;;;;;;;;;6.10;87.50;;;;;;5035047;28;19908;-75
2022/01/24 13:04:12;;;;;;;;;;;6.10;87.30;;;;;;5052917;28;19960;-74
2022/01/24 13:06:42;;;;;;;;;;;6.10;87.10;;;;;;5052968;28;19975;-73
2022/01/24 13:09:10;;;;;;;;;;;6.20;88.40;;;;;;5052789;28;19916;-74
2022/01/24 13:11:43;;;;;;;;;;;6.40;88.00;;;;;;5052639;28;19977;-73
2022/01/24 13:14:21;;;;;;;;;;;6.10;85.00;;;;;;5052926;28;20011;-74
2022/01/24 13:25:07;;;;;;;;;;;6.40;83.00;;;;;;5069078;28;20428;-74
2022/01/24 13:27:34;;;;;;;;;;;6.60;81.40;;;;;;5072635;28;20361;-74
2022/01/24 13:29:59;;;;;;;;;;;6.50;81.50;;;;;;5054804;28;19958;-74
2022/01/24 13:32:46;;;;;;;;;;;6.30;82.70;;;;;;5071487;28;19912;-73
2022/01/24 13:35:12;;;;;;;;;;;;;;;;;;5072018;28;19917;-85
2022/01/24 13:37:39;;;;;;;;;;;6.30;80.90;;;;;;5071984;28;19915;-75
2022/01/24 13:40:04;;;;;;;;;;;6.50;79.60;;;;;;5067938;28;19916;-71
2022/01/24 13:42:33;;;;;;;;;;;6.50;79.40;;;;;;5067162;28;20395;-72
2022/01/24 13:44:59;;;;;;;;;;;6.50;79.10;;;;;;5069084;28;19940;-73
2022/01/24 13:47:25;;;;;;;;;;;;;;;;;;5072087;28;20001;-73
2022/01/24 13:49:51;;;;;;;;;;;;;;;;;;5072483;28;19974;-74
2022/01/24 13:52:21;;;;;;;;;;;;;;;;;;5072062;28;20427;-82
2022/01/24 13:54:47;;;;;;;;;;;;;;;;;;5054039;28;19917;-74
2022/01/24 13:57:13;;;;;;;;;;;;;;;;;;5072333;28;20050;-83
2022/01/24 13:59:39;;;;;;;;;;;;;;;;;;5072632;28;20022;-73
2022/01/24 14:02:06;;;;;;;;;;;6.70;73.00;;;;;;5072485;28;20442;-75
2022/01/24 14:04:32;;;;;;;;;;;;;;;;;;5071594;28;19948;-74
2022/01/24 14:06:58;;;;;;;;;;;6.30;78.50;;;;;;5075141;28;20376;-73
2022/01/24 14:09:31;;;;;;;;;;;6.30;79.30;;;;;;5075333;28;19916;-71
2022/01/24 14:11:57;;;;;;;;;;;6.70;79.80;;;;;;5074820;28;19993;-70
2022/01/24 14:14:26;;;;;;;;;;;6.70;77.20;;;;;;5074868;28;20408;-75
2022/01/24 14:17:39;;;;;;;;;;;6.90;76.30;;;;;;5057970;28;20280;-79
2022/01/24 14:19:42;;;;;;;;;;;6.70;76.10;;;;;;5069663;28;19912;-71
2022/01/24 14:22:10;;;;;;;;;;;6.70;74.20;;;;;;5053900;28;19912;-68
2022/01/24 14:24:42;;;;;;;;;;;6.60;75.20;;;;;;5066291;28;20391;-77
2022/01/24 14:27:08;;;;;;;;;;;6.40;77.30;;;;;;5075698;28;20007;-74
2022/01/24 14:29:38;;;;;;;;;;;6.80;76.80;;;;;;5076381;28;20171;-74
2022/01/24 14:32:10;;;;;;;;;;;7.20;71.60;;;;;;5075398;28;20387;-74
2022/01/24 14:34:36;;;;;;;;;;;6.60;71.90;;;;;;5075128;28;20011;-73
2022/01/24 14:37:06;;;;;;;;;;;7.00;72.20;;;;;;5074309;28;20336;-73
2022/01/24 14:39:33;;;;;;;;;;;6.90;70.70;;;;;;5073675;28;19908;-70
2022/01/24 14:42:04;;;;;;;;;;;7.20;69.50;;;;;;5074888;28;19913;-70
2022/01/24 14:47:14;;;;;;;;;;;6.70;71.00;;;;;;5072516;28;19974;-70
2022/01/24 14:49:40;;;;;;;;;;;7.10;70.90;;;;;;5073629;28;20352;-72
2022/01/24 14:52:10;;;;;;;;;;;6.90;68.00;;;;;;5073811;28;20383;-75
2022/01/24 14:54:35;;;;;;;;;;;6.70;69.60;;;;;;5072429;28;19917;-73
2022/01/24 14:57:03;;;;;;;;;;;7.00;68.90;;;;;;5071641;28;19958;-73
2022/01/24 14:59:29;;;;;;;;;;;6.70;67.30;;;;;;5054753;28;19909;-74
2022/01/24 15:01:55;;;;;;;;;;;6.70;72.00;;;;;;5073121;28;20369;-74
2022/01/24 15:04:21;;;;;;;;;;;;;;;;;;5070985;28;19920;-76
2022/01/24 15:06:47;;;;;;;;;;;;;;;;;;5069369;28;19920;-75
2022/01/24 15:09:13;;;;;;;;;;;6.40;70.90;;;;;;5072976;28;20280;-73
2022/01/24 15:11:40;;;;;;;;;;;6.70;72.60;;;;;;5056109;28;19984;-74
2022/01/24 15:14:15;;;;;;;;;;;6.60;71.00;;;;;;5074945;28;19909;-73
2022/01/24 15:27:10;;;;;;;;;;;6.70;69.00;;;;;;5054531;28;19919;-75
2022/01/24 15:29:36;;;;;;;;;;;6.30;71.30;;;;;;5053879;28;20222;-74
2022/01/24 15:32:03;;;;;;;;;;;6.20;75.50;;;;;;5054699;28;20000;-74
2022/01/24 15:34:30;;;;;;;;;;;6.20;76.00;;;;;;5053680;28;19912;-75
2022/01/24 15:36:55;;;;;;;;;;;6.20;75.50;;;;;;5054252;28;19909;-74
2022/01/24 15:39:21;;;;;;;;;;;6.40;74.40;;;;;;5053685;28;19909;-75
2022/01/24 15:41:54;;;;;;;;;;;6.50;72.60;;;;;;5054198;28;19913;-75
2022/01/24 15:46:59;;;;;;;;;;;6.60;70.60;;;;;;5054201;28;20407;-75
2022/01/24 15:49:24;;;;;;;;;;;6.40;71.50;;;;;;5053271;28;19909;-75
2022/01/24 15:51:50;;;;;;;;;;;6.30;70.90;;;;;;5073482;28;19915;-74
2022/01/24 15:54:18;;;;;;;;;;;5.90;73.80;;;;;;5074072;28;19915;-74
2022/01/24 15:59:10;;;;;;;;;;;5.90;75.40;;;;;;5073820;28;19915;-75
2022/01/24 16:01:36;;;;;;;;;;;5.70;76.90;;;;;;5073217;28;19909;-75
2022/01/24 16:04:02;;;;;;;;;;;5.60;77.90;;;;;;5073206;28;19920;-75
2022/01/24 16:06:28;;;;;;;;;;;5.40;80.00;;;;;;5073120;28;19912;-75
2022/01/24 16:08:53;;;;;;;;;;;5.00;82.80;;;;;;5072687;28;19962;-75
2022/01/24 16:11:20;;;;;;;;;;;;;;;;;;5055134;28;19908;-79
2022/01/24 16:13:46;;;;;;;;;;;4.70;91.10;;;;;;5073586;28;19909;-75
2022/01/24 16:16:11;;;;;;;;;;;4.60;92.20;;;;;;5073312;28;20370;-75
2022/01/24 16:18:40;;;;;;;;;;;4.60;93.20;;;;;;5073215;28;20021;-75
2022/01/24 16:21:25;;;;;;;;;;;4.50;93.10;;;;;;5073314;28;19916;-75
2022/01/24 16:26:35;;;;;;;;;;;;;;;;;;5072025;28;19920;-76
2022/01/24 16:29:01;;;;;;;;;;;4.30;95.40;;;;;;5073215;28;20353;-74
2022/01/24 16:31:26;;;;;;;;;;;4.10;96.30;;;;;;5054900;28;19920;-75
2022/01/24 16:33:52;;;;;;;;;;;4.10;97.60;;;;;;5073493;28;19909;-75
2022/01/24 16:36:17;;;;;;;;;;;4.10;97.70;;;;;;5073326;28;19924;-75
2022/01/24 16:38:44;;;;;;;;;;;4.10;98.00;;;;;;5072397;28;19909;-75
2022/01/24 16:41:14;;;;;;;;;;;4.10;98.20;;;;;;5073518;28;19908;-75
2022/01/24 16:49:12;;;;;;;;;;;4.00;98.80;;;;;;5072904;28;20042;-74
2022/01/24 16:51:38;;;;;;;;;;;4.00;98.90;;;;;;5072386;28;19944;-75
2022/01/24 16:54:11;;;;;;;;;;;4.00;98.90;;;;;;5073031;28;20333;-75
2022/01/24 16:56:37;;;;;;;;;;;;;;;;;;5072480;28;19913;-75
2022/01/24 16:59:03;;;;;;;;;;;;;;;;;;5071384;28;19974;-76
2022/01/24 17:01:29;;;;;;;;;;;;;;;;;;5050571;28;19912;-75
2022/01/24 17:03:55;;;;;;;;;;;;;;;;;;5069362;28;19995;-76
2022/01/24 17:06:21;;;;;;;;;;;;;;;;;;5069518;28;20410;-75
2022/01/24 17:08:47;;;;;;;;;;;;;;;;;;5050829;28;19979;-75
2022/01/24 17:11:13;;;;;;;;;;;;;;;;;;5068762;28;19908;-76
2022/01/24 17:13:41;;;;;;;;;;;;;;;;;;5050462;28;19913;-76
2022/01/24 17:16:07;;;;;;;;;;;;;;;;;;5068740;28;19912;-75
2022/01/24 17:18:33;;;;;;;;;;;3.60;99.90;;;;;;5050875;28;19920;-75